createdAt,value
2023-03-18T00:02:01.737Z,12.36
2023-03-18T00:07:03.416Z,12.34
2023-03-18T00:12:06.487Z,12.28
2023-03-18T00:17:09.809Z,12.17
2023-03-18T00:22:11.671Z,12.19
2023-03-18T00:27:14.001Z,12.16
2023-03-18T00:32:17.295Z,12.18
2023-03-18T00:37:30.230Z,12.12
2023-03-18T00:42:38.841Z,11.89
2023-03-18T00:47:42.198Z,11.69
2023-03-18T00:52:44.067Z,11.66
2023-03-18T00:57:46.143Z,11.72
2023-03-18T01:02:49.622Z,11.84
2023-03-18T01:07:51.855Z,11.89
2023-03-18T01:12:55.331Z,12.01
2023-03-18T01:17:59.608Z,12.04
2023-03-18T01:23:01.388Z,12.06
2023-03-18T01:28:03.961Z,12.05
2023-03-18T01:33:09.750Z,12.04
2023-03-18T01:38:12.394Z,12.09
2023-03-18T01:43:15.027Z,12.01
2023-03-18T01:48:19.877Z,11.86
2023-03-18T01:53:22.054Z,11.76
2023-03-18T01:58:25.590Z,11.75
2023-03-18T02:03:28.735Z,11.85
2023-03-18T02:08:30.522Z,11.93
2023-03-18T02:13:35.683Z,11.92
2023-03-18T02:18:41.674Z,11.93
2023-03-18T02:23:47.396Z,11.96
2023-03-18T02:28:50.982Z,11.99
2023-03-18T02:33:52.862Z,12.00
2023-03-18T02:38:54.559Z,12.02
2023-03-18T02:44:01.337Z,12.07
2023-03-18T02:49:08.581Z,12.08
2023-03-18T02:54:12.756Z,12.08
2023-03-18T02:59:15.961Z,12.12
2023-03-18T03:04:17.699Z,12.17
2023-03-18T03:09:19.919Z,12.19
2023-03-18T03:14:23.132Z,12.17
2023-03-18T03:19:29.302Z,12.18
2023-03-18T03:24:31.097Z,12.24
2023-03-18T03:29:34.144Z,12.20
2023-03-18T03:34:35.820Z,12.19
2023-03-18T03:39:37.515Z,12.15
2023-03-18T03:44:40.923Z,12.13
2023-03-18T03:49:43.558Z,12.12
2023-03-18T03:54:45.614Z,12.18
2023-03-18T03:59:48.611Z,12.16
2023-03-18T04:04:53.647Z,12.20
2023-03-18T04:10:06.443Z,12.19
2023-03-18T04:15:10.494Z,12.20
2023-03-18T04:20:13.056Z,12.17
2023-03-18T04:25:15.025Z,12.14
2023-03-18T04:30:20.263Z,12.11
2023-03-18T04:35:35.062Z,12.07
2023-03-18T04:40:37.330Z,12.04
2023-03-18T04:45:40.445Z,12.06
2023-03-18T04:50:43.513Z,11.98
2023-03-18T04:55:49.822Z,11.96
2023-03-18T05:00:54.685Z,11.87
2023-03-18T05:06:01.523Z,11.87
2023-03-18T05:11:13.507Z,11.83
2023-03-18T05:16:17.048Z,11.75
2023-03-18T05:21:21.453Z,11.71
2023-03-18T05:26:24.638Z,11.68
2023-03-18T05:31:27.939Z,11.77
2023-03-18T05:36:29.829Z,11.71
2023-03-18T05:41:37.383Z,11.76
2023-03-18T05:46:43.707Z,11.76
2023-03-18T05:51:52.167Z,11.70
2023-03-18T05:57:07.375Z,11.76
2023-03-18T06:02:11.702Z,11.80
2023-03-18T06:07:13.531Z,11.87
2023-03-18T06:12:15.689Z,11.96
2023-03-18T06:17:19.326Z,11.93
2023-03-18T06:22:21.034Z,12.04
2023-03-18T06:27:23.334Z,12.16
2023-03-18T06:32:31.602Z,12.21
2023-03-18T06:37:33.910Z,12.34
2023-03-18T06:42:35.835Z,12.50
2023-03-18T06:47:45.007Z,13.21
2023-03-18T06:52:47.989Z,13.81
2023-03-18T06:57:53.084Z,14.65
2023-03-18T07:03:01.429Z,15.78
2023-03-18T07:08:04.495Z,17.10
2023-03-18T07:13:06.229Z,17.90
2023-03-18T07:18:11.984Z,17.79
2023-03-18T07:23:14.108Z,17.52
2023-03-18T07:28:16.267Z,18.13
2023-03-18T07:33:20.057Z,19.58
2023-03-18T07:38:21.795Z,21.25
2023-03-18T07:43:23.630Z,18.58
2023-03-18T07:48:26.694Z,17.43
2023-03-18T07:53:28.468Z,17.03
2023-03-18T07:58:30.306Z,17.05
2023-03-18T08:03:33.845Z,21.99
2023-03-18T08:08:35.622Z,25.67
2023-03-18T08:13:38.376Z,27.69
2023-03-18T08:18:42.030Z,28.29
2023-03-18T08:23:43.818Z,23.24
2023-03-18T08:28:45.719Z,20.85
2023-03-18T08:33:51.811Z,22.40
2023-03-18T08:38:53.705Z,22.51
2023-03-18T08:43:57.304Z,22.00
2023-03-18T08:49:00.566Z,20.48
2023-03-18T08:54:02.257Z,25.64
2023-03-18T08:59:03.998Z,27.94
2023-03-18T09:04:06.992Z,29.86
2023-03-18T09:09:08.841Z,31.36
2023-03-18T09:14:10.529Z,26.89
2023-03-18T09:19:13.734Z,28.83
2023-03-18T09:24:15.602Z,26.85
2023-03-18T09:29:17.302Z,25.44
2023-03-18T09:34:20.308Z,25.37
2023-03-18T09:39:22.009Z,24.88
2023-03-18T09:44:24.384Z,24.18
2023-03-18T09:49:49.510Z,25.28
2023-03-18T09:54:56.398Z,24.27
2023-03-18T10:00:00.457Z,22.30
2023-03-18T10:05:04.699Z,21.42
2023-03-18T10:10:07.731Z,20.54
2023-03-18T10:15:16.277Z,20.65
2023-03-18T10:20:20.525Z,22.75
2023-03-18T10:25:25.783Z,23.00
2023-03-18T10:30:34.083Z,21.14
2023-03-18T10:35:39.034Z,21.15
2023-03-18T10:40:41.304Z,23.55
2023-03-18T10:45:43.004Z,27.40
2023-03-18T10:50:47.287Z,23.55
2023-03-18T10:55:54.909Z,21.47
2023-03-18T11:00:59.020Z,20.18
2023-03-18T11:06:04.311Z,19.39
2023-03-18T11:11:20.963Z,22.24
2023-03-18T11:16:31.693Z,20.63
2023-03-18T11:21:34.735Z,20.11
2023-03-18T11:26:47.833Z,19.90
2023-03-18T11:31:51.901Z,19.52
2023-03-18T11:36:58.889Z,19.70
2023-03-18T11:42:00.724Z,19.47
2023-03-18T11:47:04.664Z,19.08
2023-03-18T11:52:15.432Z,18.83
2023-03-18T11:57:19.714Z,19.27
2023-03-18T12:02:34.212Z,19.47
2023-03-18T12:07:47.459Z,19.38
2023-03-18T12:13:05.455Z,19.48
2023-03-18T12:18:11.946Z,19.33
2023-03-18T12:23:26.061Z,19.39
2023-03-18T12:28:32.819Z,19.96
2023-03-18T12:33:42.946Z,19.70
2023-03-18T12:39:04.082Z,19.69
2023-03-18T12:44:12.111Z,19.54
2023-03-18T12:49:16.074Z,19.61
2023-03-18T12:54:21.510Z,19.55
2023-03-18T12:59:27.666Z,19.78
2023-03-18T13:04:30.292Z,19.95
2023-03-18T13:09:35.933Z,20.01
2023-03-18T13:14:48.171Z,20.26
2023-03-18T13:19:50.152Z,20.64
2023-03-18T13:25:08.613Z,20.52
2023-03-18T13:30:16.273Z,20.66
2023-03-18T13:35:33.314Z,20.49
2023-03-18T13:40:45.100Z,20.03
2023-03-18T13:45:47.322Z,19.55
2023-03-18T13:50:50.609Z,19.45
2023-03-18T13:56:00.645Z,19.32
2023-03-18T14:01:16.117Z,19.06
2023-03-18T14:06:24.822Z,19.08
2023-03-18T14:11:50.087Z,19.10
2023-03-18T14:16:52.322Z,19.16
2023-03-18T14:21:55.066Z,19.52
2023-03-18T14:27:13.122Z,19.68
2023-03-18T14:32:31.057Z,19.63
2023-03-18T14:37:33.959Z,19.42
2023-03-18T14:42:45.669Z,19.26
2023-03-18T14:47:50.812Z,19.09
2023-03-18T14:52:55.272Z,18.98
2023-03-18T14:57:58.328Z,18.80
2023-03-18T15:03:01.462Z,18.68
2023-03-18T15:08:06.888Z,18.54
2023-03-18T15:13:13.133Z,18.53
2023-03-18T15:18:20.172Z,18.48
2023-03-18T15:23:27.046Z,18.47
2023-03-18T15:28:30.218Z,18.45
2023-03-18T15:33:35.044Z,18.41
2023-03-18T15:38:36.916Z,18.41
2023-03-18T15:43:41.912Z,18.27
2023-03-18T15:48:44.549Z,18.19
2023-03-18T15:53:47.849Z,18.07
2023-03-18T15:58:58.795Z,18.02
2023-03-18T16:04:00.629Z,18.01
2023-03-18T16:09:13.714Z,18.02
2023-03-18T16:14:17.406Z,17.86
2023-03-18T16:19:24.787Z,17.85
2023-03-18T16:24:26.993Z,17.75
2023-03-18T16:29:30.851Z,17.62
2023-03-18T16:34:33.380Z,17.48
2023-03-18T16:39:35.089Z,17.35
2023-03-18T16:44:38.136Z,17.28
2023-03-18T16:49:40.422Z,17.19
2023-03-18T16:54:42.826Z,17.10
2023-03-18T16:59:47.888Z,17.04
2023-03-18T17:04:49.613Z,16.95
2023-03-18T17:09:51.991Z,16.96
2023-03-18T17:15:00.370Z,16.87
2023-03-18T17:20:16.438Z,16.78
2023-03-18T17:25:20.271Z,16.71
2023-03-18T17:30:34.085Z,16.64
2023-03-18T17:35:37.101Z,16.28
2023-03-18T17:40:40.869Z,15.74
2023-03-18T17:45:46.697Z,15.39
2023-03-18T17:50:49.607Z,15.15
2023-03-18T17:55:51.850Z,14.95
2023-03-18T18:00:55.543Z,14.81
2023-03-18T18:05:58.357Z,14.61
2023-03-18T18:11:04.387Z,14.26
2023-03-18T18:16:07.977Z,14.10
2023-03-18T18:21:11.834Z,13.97
2023-03-18T18:26:14.730Z,13.91
2023-03-18T18:31:19.437Z,13.70
2023-03-18T18:36:21.352Z,13.44
2023-03-18T18:41:23.048Z,13.42
2023-03-18T18:46:26.427Z,13.31
2023-03-18T18:51:28.278Z,13.20
2023-03-18T18:56:32.113Z,13.24
2023-03-18T19:01:35.126Z,13.18
2023-03-18T19:06:37.642Z,13.03
2023-03-18T19:11:39.538Z,12.89
2023-03-18T19:16:43.389Z,12.67
2023-03-18T19:21:45.122Z,12.49
2023-03-18T19:26:46.872Z,12.44
2023-03-18T19:31:50.249Z,12.49
2023-03-18T19:36:53.264Z,12.25
2023-03-18T19:41:55.626Z,12.13
2023-03-18T19:47:00.967Z,11.92
2023-03-18T19:52:03.590Z,11.73
2023-03-18T19:57:06.646Z,11.70
2023-03-18T20:02:18.373Z,11.72
2023-03-18T20:07:21.465Z,11.73
2023-03-18T20:12:24.469Z,11.77
2023-03-18T20:17:33.430Z,11.66
2023-03-18T20:22:36.699Z,11.72
2023-03-18T20:27:38.407Z,11.71
2023-03-18T20:32:43.922Z,11.75
2023-03-18T20:37:46.364Z,11.72
2023-03-18T20:42:48.173Z,11.65
2023-03-18T20:47:51.254Z,11.52
2023-03-18T20:52:53.367Z,11.53
2023-03-18T20:57:55.202Z,11.54
2023-03-18T21:02:58.614Z,11.58
2023-03-18T21:08:00.392Z,11.70
2023-03-18T21:13:02.436Z,11.71
2023-03-18T21:18:05.653Z,11.75
2023-03-18T21:23:17.151Z,11.63
2023-03-18T21:28:19.728Z,11.74
2023-03-18T21:33:24.429Z,11.85
2023-03-18T21:38:27.024Z,11.92
2023-03-18T21:43:30.819Z,12.05
2023-03-18T21:48:34.090Z,12.12
2023-03-18T21:53:35.777Z,12.19
2023-03-18T21:58:37.519Z,12.24
2023-03-18T22:03:40.595Z,11.95
2023-03-18T22:08:42.589Z,11.87
2023-03-18T22:13:44.479Z,11.77
2023-03-18T22:18:47.976Z,11.63
2023-03-18T22:23:49.764Z,11.63
2023-03-18T22:28:51.540Z,11.63
2023-03-18T22:33:54.685Z,11.37
2023-03-18T22:38:56.391Z,11.20
2023-03-18T22:43:59.876Z,11.29
2023-03-18T22:49:07.984Z,11.27
2023-03-18T22:54:13.038Z,11.30
2023-03-18T22:59:14.806Z,11.44
2023-03-18T23:04:19.595Z,11.55
2023-03-18T23:09:21.473Z,11.56
2023-03-18T23:14:23.225Z,11.39
2023-03-18T23:19:26.299Z,11.42
2023-03-18T23:24:28.009Z,11.48
2023-03-18T23:29:29.716Z,11.46
2023-03-18T23:34:32.767Z,11.59
2023-03-18T23:39:34.484Z,11.72
2023-03-18T23:44:36.195Z,11.74
2023-03-18T23:49:39.702Z,11.73
2023-03-18T23:54:41.504Z,11.78
2023-03-18T23:59:43.259Z,11.82
